Time;durP1;ratioP1;P1;durP2;ratioP2;P2;SDS_P1;SDS_P2;PMS_P1;PMS_P2;Temp;Humidity;BMP_temperature;BMP_pressure;BME280_temperature;BME280_humidity;BME280_pressure;Samples;Min_cycle;Max_cycle;Signal;HPM_P1;HPM_P2
2023/12/13 00:01:25;;;;;;;8.82;6.90;;;8.10;99.90;;;;;;5030140;28;20218;-60
2023/12/13 00:03:52;;;;;;;5.13;4.63;;;8.10;99.90;;;;;;5031219;28;20315;-59
2023/12/13 00:06:19;;;;;;;7.38;4.50;;;8.00;99.90;;;;;;5030908;28;20207;-59
2023/12/13 00:08:46;;;;;;;4.20;3.90;;;8.00;99.90;;;;;;5030834;28;20238;-60
2023/12/13 00:11:12;;;;;;;5.47;4.10;;;8.00;99.90;;;;;;5030560;28;20290;-60
2023/12/13 00:13:41;;;;;;;4.82;3.65;;;8.00;99.90;;;;;;5030641;28;20716;-60
2023/12/13 00:16:09;;;;;;;4.53;3.78;;;7.90;99.90;;;;;;5028353;28;20195;-59
2023/12/13 00:18:36;;;;;;;4.20;3.90;;;7.90;99.90;;;;;;5030525;28;20693;-60
2023/12/13 00:21:03;;;;;;;3.95;3.38;;;7.90;99.90;;;;;;5028403;28;20214;-60
2023/12/13 00:23:30;;;;;;;4.65;3.17;;;7.80;99.90;;;;;;5030776;28;20223;-60
2023/12/13 00:25:57;;;;;;;4.68;3.28;;;7.80;99.90;;;;;;5031055;28;20604;-60
2023/12/13 00:28:24;;;;;;;3.92;3.55;;;7.80;99.90;;;;;;5030532;28;20282;-60
2023/12/13 00:30:52;;;;;;;3.45;3.15;;;7.70;99.90;;;;;;5031174;28;20199;-60
2023/12/13 00:33:19;;;;;;;5.20;3.17;;;7.70;99.90;;;;;;5029542;28;20207;-61
2023/12/13 00:35:46;;;;;;;4.68;4.13;;;7.70;99.90;;;;;;5031269;28;20585;-58
2023/12/13 00:38:14;;;;;;;5.53;4.45;;;7.60;99.90;;;;;;5031226;28;20218;-60
2023/12/13 00:40:40;;;;;;;5.43;4.63;;;7.60;99.90;;;;;;5031199;28;20293;-59
2023/12/13 00:43:07;;;;;;;5.47;4.97;;;7.60;99.90;;;;;;5031418;28;20203;-60
2023/12/13 00:45:35;;;;;;;5.57;5.05;;;7.60;99.90;;;;;;5031199;28;20705;-59
2023/12/13 00:48:03;;;;;;;6.53;4.90;;;7.50;99.90;;;;;;5031065;28;20211;-60
2023/12/13 00:50:30;;;;;;;6.07;4.80;;;7.50;99.90;;;;;;5031226;28;20281;-60
2023/12/13 00:52:57;;;;;;;9.27;5.75;;;7.50;99.90;;;;;;5031256;28;20211;-59
2023/12/13 00:55:24;;;;;;;6.05;4.97;;;7.50;99.90;;;;;;5030988;28;20229;-60
2023/12/13 00:57:50;;;;;;;5.35;4.03;;;7.50;99.90;;;;;;5030373;28;20221;-60
2023/12/13 01:00:18;;;;;;;4.38;3.90;;;7.40;99.90;;;;;;5029663;28;20210;-59
2023/12/13 01:02:44;;;;;;;5.97;4.60;;;7.40;99.90;;;;;;5030787;28;20289;-60
2023/12/13 01:05:13;;;;;;;5.38;4.18;;;7.40;99.90;;;;;;5028375;28;20676;-59
2023/12/13 01:07:39;;;;;;;4.85;3.50;;;7.30;99.90;;;;;;5030797;28;20207;-60
2023/12/13 01:10:07;;;;;;;4.93;3.83;;;7.30;99.90;;;;;;5030632;28;20584;-60
2023/12/13 01:12:34;;;;;;;3.72;3.33;;;7.30;99.90;;;;;;5031247;28;20249;-59
2023/12/13 01:15:01;;;;;;;4.97;3.38;;;7.20;99.90;;;;;;5031054;28;20339;-61
2023/12/13 01:17:28;;;;;;;6.03;3.60;;;7.20;99.90;;;;;;5030916;28;20202;-61
2023/12/13 01:19:54;;;;;;;4.07;3.72;;;7.20;99.90;;;;;;5030956;28;20199;-61
2023/12/13 01:22:23;;;;;;;8.70;3.92;;;7.20;99.90;;;;;;5031019;28;20210;-60
2023/12/13 01:24:49;;;;;;;5.20;4.18;;;7.20;99.90;;;;;;5030859;28;20235;-59
2023/12/13 01:27:17;;;;;;;3.97;3.67;;;7.20;99.90;;;;;;5030987;28;20211;-61
2023/12/13 01:29:44;;;;;;;4.25;3.20;;;7.20;99.90;;;;;;5033221;28;20213;-60
2023/12/13 01:32:10;;;;;;;2.90;2.70;;;7.20;99.90;;;;;;5034918;28;20206;-61
2023/12/13 01:34:37;;;;;;;3.22;2.97;;;7.20;99.90;;;;;;5034761;28;20289;-61
2023/12/13 01:37:04;;;;;;;4.30;3.08;;;7.20;99.90;;;;;;5034810;28;20207;-61
2023/12/13 01:39:32;;;;;;;5.90;2.63;;;7.20;99.90;;;;;;5034954;28;20239;-61
2023/12/13 01:41:59;;;;;;;2.33;2.13;;;7.20;99.90;;;;;;5035024;28;20217;-61
2023/12/13 01:44:26;;;;;;;4.00;2.88;;;7.20;99.90;;;;;;5034633;28;20253;-61
2023/12/13 01:46:53;;;;;;;3.63;3.20;;;7.30;99.90;;;;;;5034490;28;20242;-61
2023/12/13 01:49:20;;;;;;;2.53;2.33;;;7.30;99.90;;;;;;5034327;28;20203;-61
2023/12/13 01:51:47;;;;;;;4.22;3.00;;;7.30;99.90;;;;;;5034751;28;20685;-61
2023/12/13 01:54:17;;;;;;;4.80;2.35;;;7.30;99.90;;;;;;5034653;28;20243;-60
2023/12/13 01:56:46;;;;;;;3.28;2.97;;;7.30;99.90;;;;;;5034928;28;20294;-61
2023/12/13 01:59:13;;;;;;;4.40;2.00;;;7.20;99.90;;;;;;5034674;28;20213;-61
2023/12/13 02:01:41;;;;;;;4.55;2.42;;;7.20;99.90;;;;;;5034436;28;20297;-61
2023/12/13 02:04:08;;;;;;;5.55;2.45;;;7.20;99.90;;;;;;5034232;28;20230;-60
2023/12/13 02:06:36;;;;;;;2.58;2.47;;;7.10;99.90;;;;;;5034533;28;20207;-61
2023/12/13 02:09:03;;;;;;;2.38;2.17;;;7.10;99.90;;;;;;5034121;28;20306;-61
2023/12/13 02:11:30;;;;;;;2.53;2.33;;;7.10;99.90;;;;;;5034652;28;20207;-61
2023/12/13 02:13:59;;;;;;;4.38;2.33;;;7.00;99.90;;;;;;5034276;28;20227;-61
2023/12/13 02:16:26;;;;;;;3.10;2.80;;;7.00;99.90;;;;;;5033990;28;20199;-60
2023/12/13 02:18:53;;;;;;;4.88;2.88;;;7.00;99.90;;;;;;5033899;28;20218;-61
2023/12/13 02:21:20;;;;;;;3.40;3.10;;;7.00;99.90;;;;;;5034011;28;20199;-61
2023/12/13 02:23:50;;;;;;;2.85;2.30;;;7.00;99.90;;;;;;5033349;28;20219;-60
2023/12/13 02:26:17;;;;;;;2.30;2.10;;;7.00;99.90;;;;;;5033262;28;20227;-61
2023/12/13 02:28:45;;;;;;;4.10;2.78;;;7.10;99.90;;;;;;5033770;28;20297;-60
2023/12/13 02:31:15;;;;;;;2.90;2.58;;;7.10;99.90;;;;;;5033891;28;20698;-60
2023/12/13 02:33:43;;;;;;;4.75;3.53;;;7.10;99.90;;;;;;5033877;28;20438;-60
2023/12/13 02:36:10;;;;;;;3.60;3.30;;;7.10;99.90;;;;;;5034034;28;20203;-61
2023/12/13 02:38:37;;;;;;;4.40;3.83;;;7.10;99.90;;;;;;5033749;28;20207;-61
2023/12/13 02:41:05;;;;;;;4.28;3.30;;;7.10;99.90;;;;;;5033602;28;20203;-60
2023/12/13 02:43:32;;;;;;;5.15;3.65;;;7.10;99.90;;;;;;5033410;28;20743;-60
2023/12/13 02:45:59;;;;;;;5.13;3.13;;;7.10;99.90;;;;;;5034025;28;20237;-60
2023/12/13 02:48:26;;;;;;;3.47;2.97;;;7.10;99.90;;;;;;5033620;28;20202;-61
2023/12/13 02:50:53;;;;;;;2.72;2.53;;;7.10;99.90;;;;;;5033791;28;20298;-60
2023/12/13 02:53:20;;;;;;;2.70;2.50;;;7.10;99.90;;;;;;5033587;28;20260;-61
2023/12/13 02:55:47;;;;;;;4.10;3.25;;;7.00;99.90;;;;;;5033525;28;20199;-60
2023/12/13 02:58:15;;;;;;;4.55;3.80;;;7.00;99.90;;;;;;5032867;28;20237;-59
2023/12/13 03:00:42;;;;;;;5.70;3.58;;;7.00;99.90;;;;;;5033537;28;20213;-60
2023/12/13 03:03:09;;;;;;;10.85;3.55;;;7.00;99.90;;;;;;5033466;28;20594;-59
2023/12/13 03:05:36;;;;;;;5.03;3.15;;;7.00;99.90;;;;;;5033392;28;20599;-60
2023/12/13 03:08:03;;;;;;;4.45;3.90;;;7.00;99.90;;;;;;5033006;28;20225;-61
2023/12/13 03:10:30;;;;;;;3.78;3.47;;;7.10;99.90;;;;;;5069556;22;20716;-56
2023/12/13 03:12:57;;;;;;;4.30;3.85;;;7.10;99.90;;;;;;5053539;28;20210;-58
2023/12/13 03:15:25;;;;;;;5.35;3.00;;;7.10;99.90;;;;;;5053565;28;20213;-58
2023/12/13 03:17:52;;;;;;;3.97;3.63;;;7.00;99.90;;;;;;5053447;28;20296;-56
2023/12/13 03:20:18;;;;;;;5.32;3.35;;;7.00;99.90;;;;;;5053540;28;20613;-57
2023/12/13 03:22:45;;;;;;;4.63;2.83;;;6.90;99.90;;;;;;5053478;28;20210;-57
2023/12/13 03:25:12;;;;;;;4.00;2.70;;;6.90;99.90;;;;;;5053313;28;20222;-58
2023/12/13 03:27:42;;;;;;;3.00;2.65;;;6.80;99.90;;;;;;5052997;28;20318;-57
2023/12/13 03:30:10;;;;;;;2.63;2.42;;;6.80;99.90;;;;;;5053353;28;20237;-57
2023/12/13 03:32:39;;;;;;;4.90;2.30;;;6.70;99.90;;;;;;5053203;28;20210;-57
2023/12/13 03:35:07;;;;;;;3.25;2.28;;;6.70;99.90;;;;;;5053243;28;20218;-57
2023/12/13 03:37:34;;;;;;;3.40;2.63;;;6.60;99.90;;;;;;5052940;28;20677;-59
2023/12/13 03:40:01;;;;;;;2.60;2.28;;;6.60;99.90;;;;;;5052928;28;20237;-57
2023/12/13 03:42:28;;;;;;;2.67;2.53;;;6.50;99.90;;;;;;5052952;28;20213;-57
2023/12/13 03:44:56;;;;;;;4.75;2.05;;;6.50;99.90;;;;;;5052861;28;20289;-58
2023/12/13 03:47:22;;;;;;;4.15;2.30;;;6.40;99.90;;;;;;5053010;28;20217;-58
2023/12/13 03:49:51;;;;;;;7.10;2.10;;;6.40;99.90;;;;;;5052880;28;20260;-59
2023/12/13 03:52:17;;;;;;;3.35;2.53;;;6.30;99.90;;;;;;5052136;28;20216;-59
2023/12/13 03:54:44;;;;;;;2.33;2.10;;;6.30;99.90;;;;;;5052729;28;20585;-58
2023/12/13 03:57:11;;;;;;;2.35;2.15;;;6.30;99.90;;;;;;5052806;28;20628;-59
2023/12/13 03:59:38;;;;;;;3.35;3.03;;;6.30;99.90;;;;;;5052448;28;20240;-58
2023/12/13 04:02:05;;;;;;;3.75;2.60;;;6.40;99.90;;;;;;5052762;28;20724;-57
2023/12/13 04:04:31;;;;;;;3.22;2.75;;;6.40;99.90;;;;;;5052414;28;20210;-57
2023/12/13 04:07:00;;;;;;;3.55;3.13;;;6.40;99.90;;;;;;5052435;28;20223;-58
2023/12/13 04:09:27;;;;;;;8.77;2.75;;;6.40;99.90;;;;;;5051777;28;20608;-57
2023/12/13 04:11:54;;;;;;;3.40;3.17;;;6.40;99.90;;;;;;5052669;28;20206;-58
2023/12/13 04:14:21;;;;;;;2.72;2.55;;;6.40;99.90;;;;;;5052522;28;20228;-57
2023/12/13 04:16:48;;;;;;;3.42;3.00;;;6.50;99.90;;;;;;5052392;28;20208;-58
2023/12/13 04:19:14;;;;;;;2.92;2.72;;;6.50;99.90;;;;;;5051986;28;20752;-59
2023/12/13 04:21:41;;;;;;;2.92;2.72;;;6.50;99.90;;;;;;5052264;28;20205;-58
2023/12/13 04:24:09;;;;;;;3.13;2.92;;;6.50;99.90;;;;;;5052120;28;20206;-56
2023/12/13 04:26:36;;;;;;;6.63;2.97;;;6.50;99.90;;;;;;5052167;28;20745;-55
2023/12/13 04:29:03;;;;;;;4.07;2.30;;;6.60;99.90;;;;;;5051863;28;20215;-58
2023/12/13 04:31:30;;;;;;;2.60;2.40;;;6.60;99.90;;;;;;5052203;28;20212;-58
2023/12/13 04:33:57;;;;;;;5.65;2.60;;;6.60;99.90;;;;;;5052151;28;20719;-59
2023/12/13 04:36:24;;;;;;;2.70;2.50;;;6.60;99.90;;;;;;5051906;28;20206;-59
2023/12/13 04:38:51;;;;;;;2.60;2.40;;;6.60;99.90;;;;;;5051693;28;20701;-59
2023/12/13 04:41:19;;;;;;;3.35;3.05;;;6.60;99.90;;;;;;5051718;28;20230;-59
2023/12/13 04:43:46;;;;;;;2.85;2.65;;;6.60;99.90;;;;;;5052047;28;20212;-58
2023/12/13 04:46:12;;;;;;;5.18;2.40;;;6.60;99.90;;;;;;5051785;28;20222;-59
2023/12/13 04:48:39;;;;;;;3.90;2.15;;;6.70;99.90;;;;;;5050582;28;20210;-55
2023/12/13 04:51:07;;;;;;;3.63;2.83;;;6.70;99.90;;;;;;5051828;28;20226;-59
2023/12/13 04:53:34;;;;;;;4.20;3.20;;;6.70;99.90;;;;;;5051624;28;20268;-57
2023/12/13 04:56:01;;;;;;;3.08;2.45;;;6.70;99.90;;;;;;5051696;28;20202;-59
2023/12/13 04:58:30;;;;;;;3.80;3.50;;;6.80;99.90;;;;;;5051371;28;20297;-58
2023/12/13 05:00:56;;;;;;;3.10;2.90;;;6.80;99.90;;;;;;5051584;28;20340;-58
2023/12/13 05:03:23;;;;;;;3.03;2.70;;;6.80;99.90;;;;;;5051739;28;20206;-58
2023/12/13 05:05:50;;;;;;;2.92;2.50;;;6.80;99.90;;;;;;5051683;28;20248;-59
2023/12/13 05:08:17;;;;;;;4.18;2.60;;;6.90;99.90;;;;;;5051602;28;20214;-58
2023/12/13 05:10:44;;;;;;;2.70;2.50;;;6.90;99.90;;;;;;5051455;28;20717;-59
2023/12/13 05:13:11;;;;;;;5.50;2.38;;;6.90;99.90;;;;;;5051567;28;20206;-59
2023/12/13 05:15:39;;;;;;;2.22;2.10;;;6.90;99.90;;;;;;5051566;28;20752;-59
2023/12/13 05:18:06;;;;;;;5.32;3.72;;;7.00;99.90;;;;;;5051170;28;20238;-56
2023/12/13 05:20:33;;;;;;;5.70;3.03;;;7.00;99.90;;;;;;5051510;28;20313;-56
2023/12/13 05:23:00;;;;;;;4.53;3.20;;;7.00;99.90;;;;;;5051534;28;20210;-56
2023/12/13 05:25:27;;;;;;;3.45;2.60;;;7.00;99.90;;;;;;5051312;28;20584;-58
2023/12/13 05:27:53;;;;;;;4.00;3.60;;;7.00;99.90;;;;;;5051219;28;20680;-59
2023/12/13 05:30:23;;;;;;;3.58;2.78;;;7.00;99.90;;;;;;5051216;28;20230;-59
2023/12/13 05:32:51;;;;;;;3.97;3.20;;;7.10;99.90;;;;;;5051604;28;20209;-58
2023/12/13 05:35:18;;;;;;;4.90;3.10;;;7.10;99.90;;;;;;5051531;28;20317;-58
2023/12/13 05:37:45;;;;;;;4.60;3.30;;;7.10;99.90;;;;;;5051155;28;20279;-59
2023/12/13 05:40:12;;;;;;;3.40;3.10;;;7.10;99.90;;;;;;5051224;28;20230;-59
2023/12/13 05:42:40;;;;;;;2.88;2.67;;;7.10;99.90;;;;;;5051248;28;20297;-54
2023/12/13 05:45:07;;;;;;;3.30;3.10;;;7.30;99.90;;;;;;5051156;28;20206;-58
2023/12/13 05:47:34;;;;;;;2.80;2.60;;;7.20;99.90;;;;;;5051098;28;20665;-59
2023/12/13 05:50:04;;;;;;;2.45;2.35;;;7.10;99.90;;;;;;5051201;28;20233;-57
2023/12/13 05:52:32;;;;;;;3.40;2.10;;;7.00;99.90;;;;;;5051187;28;20215;-57
2023/12/13 05:54:59;;;;;;;9.30;2.60;;;7.00;99.90;;;;;;5051032;28;20209;-59
2023/12/13 05:57:25;;;;;;;6.45;3.88;;;6.90;99.90;;;;;;5050733;28;20205;-60
2023/12/13 05:59:52;;;;;;;4.53;3.25;;;6.90;99.90;;;;;;5050961;28;20735;-58
2023/12/13 06:02:19;;;;;;;3.13;2.83;;;6.80;99.90;;;;;;5051165;28;20206;-58
2023/12/13 06:04:46;;;;;;;3.88;2.95;;;6.70;99.90;;;;;;5051156;28;20740;-56
2023/12/13 06:07:14;;;;;;;2.30;2.20;;;6.70;99.90;;;;;;5050925;28;20233;-59
2023/12/13 06:09:42;;;;;;;4.10;2.25;;;6.70;99.90;;;;;;5050596;28;20234;-56
2023/12/13 06:12:09;;;;;;;8.85;2.10;;;6.60;99.90;;;;;;5051166;28;20206;-56
2023/12/13 06:14:36;;;;;;;2.30;2.10;;;6.60;99.90;;;;;;5051517;28;20207;-56
2023/12/13 06:17:03;;;;;;;3.65;2.85;;;6.50;99.90;;;;;;5054685;28;20213;-58
2023/12/13 06:19:32;;;;;;;5.00;2.42;;;6.40;99.90;;;;;;5054348;28;20685;-59
2023/12/13 06:21:58;;;;;;;3.08;2.50;;;6.40;99.90;;;;;;5054593;28;20309;-58
2023/12/13 06:24:27;;;;;;;3.42;2.42;;;6.40;99.90;;;;;;5054292;28;20209;-59
2023/12/13 06:26:54;;;;;;;2.45;2.25;;;6.40;99.90;;;;;;5054504;28;20254;-59
2023/12/13 06:29:20;;;;;;;3.60;3.30;;;6.40;99.90;;;;;;5054413;28;20309;-55
2023/12/13 06:31:47;;;;;;;3.58;2.33;;;6.30;99.90;;;;;;5054383;28;20218;-56
2023/12/13 06:34:14;;;;;;;4.78;2.80;;;6.30;99.90;;;;;;5054426;28;20238;-55
2023/12/13 06:36:41;;;;;;;2.85;2.65;;;6.30;99.90;;;;;;5053682;28;20285;-58
2023/12/13 06:39:11;;;;;;;4.18;2.88;;;6.30;99.90;;;;;;5053752;28;20210;-56
2023/12/13 06:41:39;;;;;;;2.83;2.42;;;6.40;99.90;;;;;;5054297;28;20246;-58
2023/12/13 06:44:06;;;;;;;5.82;2.95;;;6.40;99.90;;;;;;5054245;28;20206;-56
2023/12/13 06:46:33;;;;;;;5.93;3.22;;;6.40;99.90;;;;;;5053971;28;20245;-55
2023/12/13 06:49:00;;;;;;;7.13;3.80;;;6.40;99.90;;;;;;5053907;28;20206;-54
2023/12/13 06:51:27;;;;;;;4.43;3.20;;;6.40;99.90;;;;;;5053922;28;20223;-58
2023/12/13 06:53:54;;;;;;;4.30;3.70;;;6.40;99.90;;;;;;5052973;28;20309;-57
2023/12/13 06:56:21;;;;;;;5.05;3.58;;;6.50;99.90;;;;;;5052839;28;20195;-57
2023/12/13 06:58:49;;;;;;;3.92;3.63;;;6.50;99.90;;;;;;5053674;28;20210;-58
2023/12/13 07:01:16;;;;;;;3.70;3.40;;;6.50;99.90;;;;;;5053742;28;20219;-58
2023/12/13 07:03:43;;;;;;;3.67;3.38;;;6.50;99.90;;;;;;5053800;28;20212;-57
2023/12/13 07:06:10;;;;;;;6.03;3.30;;;6.60;99.90;;;;;;5053450;28;20218;-58
2023/12/13 07:08:36;;;;;;;4.97;3.70;;;6.60;99.90;;;;;;5053448;28;20237;-57
2023/12/13 07:11:04;;;;;;;3.33;3.03;;;6.60;99.90;;;;;;5053441;28;20230;-57
2023/12/13 07:13:31;;;;;;;3.80;3.50;;;6.60;99.90;;;;;;5053683;28;20229;-57
2023/12/13 07:15:59;;;;;;;5.28;3.72;;;6.60;99.90;;;;;;5053605;28;20704;-58
2023/12/13 07:18:26;;;;;;;4.40;4.00;;;6.60;99.90;;;;;;5053211;28;20570;-58
2023/12/13 07:20:53;;;;;;;5.38;4.80;;;6.60;99.90;;;;;;5053321;28;20226;-56
2023/12/13 07:23:20;;;;;;;7.50;4.22;;;6.60;99.90;;;;;;5053382;28;20217;-59
2023/12/13 07:25:47;;;;;;;4.30;4.00;;;6.60;99.90;;;;;;5053223;28;20203;-58
2023/12/13 07:28:14;;;;;;;5.38;4.47;;;6.60;99.90;;;;;;5052337;28;20230;-58
2023/12/13 07:30:42;;;;;;;4.40;4.00;;;6.70;99.90;;;;;;5053247;28;20726;-56
2023/12/13 07:33:10;;;;;;;4.03;3.72;;;6.70;99.90;;;;;;5053087;28;20210;-58
2023/12/13 07:35:37;;;;;;;5.10;4.25;;;6.70;99.90;;;;;;5053362;28;20320;-58
2023/12/13 07:38:04;;;;;;;4.80;4.30;;;6.70;99.90;;;;;;5053062;28;20633;-59
2023/12/13 07:40:32;;;;;;;8.65;4.65;;;6.70;99.90;;;;;;5053111;28;20234;-58
2023/12/13 07:42:59;;;;;;;5.03;4.60;;;6.60;99.90;;;;;;5053062;28;20308;-58
2023/12/13 07:45:25;;;;;;;5.82;5.25;;;6.70;99.90;;;;;;5053019;28;20203;-58
2023/12/13 07:47:52;;;;;;;9.55;4.60;;;6.70;99.90;;;;;;5052482;28;20226;-58
2023/12/13 07:50:20;;;;;;;5.53;4.60;;;6.70;99.90;;;;;;5053028;28;20687;-58
2023/12/13 07:52:47;;;;;;;6.60;4.72;;;6.70;99.90;;;;;;5052786;28;20297;-58
2023/12/13 07:55:18;;;;;;;10.75;9.63;;;6.80;99.90;;;;;;5053002;28;20210;-58
2023/12/13 07:57:45;;;;;;;12.57;9.38;;;6.80;99.90;;;;;;5052638;28;20642;-60
2023/12/13 08:00:13;;;;;;;7.10;6.15;;;6.80;99.90;;;;;;5052845;28;20596;-58
2023/12/13 08:02:40;;;;;;;8.93;7.32;;;6.90;99.90;;;;;;5052620;28;20298;-58
2023/12/13 08:05:07;;;;;;;7.47;6.72;;;6.80;99.90;;;;;;5052768;28;20214;-59
2023/12/13 08:07:35;;;;;;;10.65;6.40;;;6.90;99.90;;;;;;5047397;28;20229;-57
2023/12/13 08:10:03;;;;;;;8.85;7.95;;;6.90;99.90;;;;;;5049730;28;20317;-59
2023/12/13 08:12:30;;;;;;;7.20;6.47;;;6.90;99.90;;;;;;5051713;28;20560;-59
2023/12/13 08:14:56;;;;;;;8.35;6.88;;;6.90;99.90;;;;;;5049647;28;20687;-59
2023/12/13 08:17:23;;;;;;;9.48;8.48;;;7.00;99.90;;;;;;5051273;28;20225;-57
2023/12/13 08:19:50;;;;;;;7.32;6.63;;;7.00;99.90;;;;;;5056860;28;20283;-58
2023/12/13 08:22:17;;;;;;;5.60;5.10;;;7.00;99.90;;;;;;5051526;28;20298;-54
2023/12/13 08:24:45;;;;;;;5.47;4.97;;;7.10;99.90;;;;;;5052721;28;20685;-57
2023/12/13 08:27:12;;;;;;;5.10;4.57;;;7.10;99.90;;;;;;5050749;28;20237;-57
2023/12/13 08:29:39;;;;;;;5.75;5.28;;;7.10;99.90;;;;;;5050807;28;20256;-58
2023/12/13 08:32:06;;;;;;;9.65;8.25;;;7.10;99.90;;;;;;5051722;28;20213;-54
2023/12/13 08:34:33;;;;;;;8.13;7.45;;;7.10;99.90;;;;;;5051418;28;20213;-60
2023/12/13 08:37:00;;;;;;;8.15;7.45;;;7.20;99.90;;;;;;5051315;28;20198;-58
2023/12/13 08:39:27;;;;;;;8.20;7.50;;;7.20;99.90;;;;;;5050844;28;20233;-55
2023/12/13 08:41:55;;;;;;;13.25;9.57;;;7.20;99.90;;;;;;5051275;28;20206;-59
2023/12/13 08:44:24;;;;;;;10.52;8.15;;;7.20;99.90;;;;;;5051372;28;20202;-57
2023/12/13 08:46:51;;;;;;;10.60;6.93;;;7.20;99.90;;;;;;5050743;28;20257;-59
2023/12/13 08:49:19;;;;;;;9.30;8.50;;;7.30;99.90;;;;;;5051128;28;20225;-58
2023/12/13 08:51:46;;;;;;;8.57;7.70;;;7.30;99.90;;;;;;5050910;28;20202;-59
2023/12/13 08:54:13;;;;;;;7.97;7.32;;;7.40;99.90;;;;;;5051453;28;20206;-58
2023/12/13 08:56:40;;;;;;;6.35;5.70;;;7.40;99.90;;;;;;5050675;28;20210;-56
2023/12/13 08:59:08;;;;;;;6.10;4.15;;;7.40;99.90;;;;;;5051321;28;20218;-58
2023/12/13 09:01:35;;;;;;;7.25;5.95;;;7.40;99.90;;;;;;5051749;28;20301;-58
2023/12/13 09:04:02;;;;;;;6.45;5.60;;;7.50;99.90;;;;;;5051648;28;20207;-57
2023/12/13 09:06:29;;;;;;;4.88;4.38;;;7.50;99.90;;;;;;5050902;28;20206;-58
2023/12/13 09:08:56;;;;;;;6.40;5.80;;;7.60;99.90;;;;;;5050869;28;20593;-57
2023/12/13 09:11:23;;;;;;;6.80;6.30;;;7.50;99.90;;;;;;5057176;22;20324;-59
2023/12/13 09:13:50;;;;;;;7.28;6.05;;;7.60;99.90;;;;;;5031436;28;20207;-59
2023/12/13 09:16:18;;;;;;;6.93;5.00;;;7.60;99.90;;;;;;5031474;28;20297;-59
2023/12/13 09:18:45;;;;;;;5.18;4.78;;;7.60;99.90;;;;;;5031350;28;20280;-57
2023/12/13 09:21:12;;;;;;;7.50;6.05;;;7.60;99.90;;;;;;5047426;28;20313;-54
2023/12/13 09:23:40;;;;;;;9.52;6.72;;;7.70;99.90;;;;;;5051355;28;20206;-58
2023/12/13 09:26:07;;;;;;;9.35;7.50;;;7.70;99.90;;;;;;5050660;28;20296;-60
2023/12/13 09:28:35;;;;;;;8.45;7.50;;;7.80;99.90;;;;;;5050886;28;20226;-58
2023/12/13 09:31:03;;;;;;;5.32;4.78;;;7.80;99.90;;;;;;5050573;28;20716;-58
2023/12/13 09:33:31;;;;;;;6.10;5.53;;;7.90;99.90;;;;;;5051042;28;20213;-56
2023/12/13 09:35:58;;;;;;;6.40;5.80;;;7.90;99.90;;;;;;5050929;28;20206;-58
2023/12/13 09:38:25;;;;;;;10.65;7.30;;;8.00;99.90;;;;;;5050833;28;20293;-56
2023/12/13 09:40:52;;;;;;;8.63;6.97;;;8.00;99.90;;;;;;5050888;28;20325;-58
2023/12/13 09:43:20;;;;;;;7.50;6.70;;;8.10;99.90;;;;;;5051242;28;20293;-55
2023/12/13 09:45:49;;;;;;;7.95;7.25;;;8.10;99.90;;;;;;5051039;28;20585;-60
2023/12/13 09:48:21;;;;;;;8.48;7.38;;;8.20;99.90;;;;;;5050871;28;20313;-56
2023/12/13 09:50:52;;;;;;;12.60;8.50;;;8.20;99.90;;;;;;5053706;28;20237;-57
2023/12/13 09:53:21;;;;;;;9.55;8.55;;;8.30;99.90;;;;;;5054955;28;20297;-56
2023/12/13 09:55:48;;;;;;;8.20;7.38;;;8.30;99.90;;;;;;5055075;28;20576;-59
2023/12/13 09:58:15;;;;;;;9.70;8.43;;;8.30;99.90;;;;;;5054794;28;20202;-58
2023/12/13 10:00:43;;;;;;;12.25;8.40;;;8.30;99.90;;;;;;5054691;28;20233;-57
2023/12/13 10:03:10;;;;;;;9.55;8.55;;;8.40;99.90;;;;;;5054881;28;20256;-59
2023/12/13 10:05:40;;;;;;;10.30;9.40;;;8.40;99.90;;;;;;5054630;28;20578;-58
2023/12/13 10:08:11;;;;;;;12.02;8.98;;;8.50;99.90;;;;;;5054661;28;20267;-58
2023/12/13 10:10:39;;;;;;;7.93;7.10;;;8.50;99.90;;;;;;5054658;28;20237;-56
2023/12/13 10:13:09;;;;;;;8.95;7.05;;;8.50;99.90;;;;;;5054558;28;20213;-55
2023/12/13 10:15:37;;;;;;;7.85;6.85;;;8.50;99.90;;;;;;5054752;28;20206;-59
2023/12/13 10:18:04;;;;;;;9.68;7.40;;;8.50;99.90;;;;;;5054134;28;20207;-58
2023/12/13 10:20:32;;;;;;;10.53;8.50;;;8.50;99.90;;;;;;5054211;28;20226;-60
2023/12/13 10:22:59;;;;;;;9.73;8.02;;;8.60;99.90;;;;;;5054579;28;20477;-56
2023/12/13 10:25:28;;;;;;;7.53;5.82;;;8.60;99.90;;;;;;5054411;28;20748;-56
2023/12/13 10:27:54;;;;;;;8.40;7.53;;;8.60;99.90;;;;;;5053271;28;20219;-56
2023/12/13 10:30:22;;;;;;;11.60;8.05;;;8.70;99.90;;;;;;5053527;28;20220;-55
2023/12/13 10:32:50;;;;;;;8.43;7.00;;;8.70;99.90;;;;;;5052618;28;20308;-56
2023/12/13 10:35:17;;;;;;;5.53;5.03;;;8.80;99.90;;;;;;5052524;28;20449;-59
2023/12/13 10:37:48;;;;;;;8.50;5.93;;;8.90;99.90;;;;;;5052585;28;20209;-57
2023/12/13 10:40:17;;;;;;;5.63;5.22;;;8.90;99.90;;;;;;5052838;28;20226;-59
2023/12/13 10:42:49;;;;;;;9.95;5.60;;;9.00;99.90;;;;;;5053833;28;20214;-57
2023/12/13 10:45:18;;;;;;;8.57;5.18;;;9.00;99.90;;;;;;5053582;28;20297;-56
2023/12/13 10:47:46;;;;;;;7.60;4.38;;;9.00;99.90;;;;;;5053622;28;20313;-57
2023/12/13 10:50:15;;;;;;;5.28;3.90;;;9.10;99.90;;;;;;5053688;28;20325;-57
2023/12/13 10:52:42;;;;;;;15.05;12.20;;;9.10;99.90;;;;;;5052992;28;20756;-57
2023/12/13 10:55:09;;;;;;;6.50;5.90;;;9.10;99.90;;;;;;5052724;28;20252;-59
2023/12/13 10:57:37;;;;;;;7.30;5.00;;;9.10;99.90;;;;;;5052276;28;20886;-58
2023/12/13 11:00:08;;;;;;;6.80;6.13;;;9.20;99.90;;;;;;5051276;28;20601;-59
2023/12/13 11:02:43;;;;;;;5.93;5.40;;;9.20;99.90;;;;;;5052529;28;20550;-58
2023/12/13 11:05:11;;;;;;;11.90;5.80;;;9.20;99.90;;;;;;5053358;28;20449;-58
2023/12/13 11:07:44;;;;;;;6.90;5.37;;;9.30;99.90;;;;;;5050594;28;20532;-58
2023/12/13 11:10:13;;;;;;;5.97;3.53;;;9.30;99.90;;;;;;5051236;28;20465;-59
2023/12/13 11:12:49;;;;;;;3.20;2.90;;;9.30;99.90;;;;;;5053219;28;20226;-58
2023/12/13 11:15:18;;;;;;;3.10;2.90;;;9.30;99.90;;;;;;5052918;28;20437;-59
2023/12/13 11:17:48;;;;;;;5.00;3.00;;;9.30;99.90;;;;;;5052382;28;20217;-58
2023/12/13 11:20:15;;;;;;;5.32;4.70;;;9.30;99.90;;;;;;5053034;28;20229;-58
2023/12/13 11:22:47;;;;;;;4.70;3.40;;;9.30;99.90;;;;;;5052696;28;20657;-59
2023/12/13 11:25:14;;;;;;;3.85;2.03;;;9.30;99.90;;;;;;5052943;28;20823;-58
2023/12/13 11:27:51;;;;;;;5.82;2.60;;;9.30;99.90;;;;;;5052315;28;20317;-58
2023/12/13 11:30:21;;;;;;;2.80;2.50;;;9.30;99.90;;;;;;5046268;28;20317;-58
2023/12/13 11:32:49;;;;;;;5.43;2.50;;;9.30;99.90;;;;;;5052703;28;20451;-59
2023/12/13 11:35:18;;;;;;;2.35;2.25;;;9.40;99.90;;;;;;5050869;28;20206;-59
2023/12/13 11:37:49;;;;;;;2.53;2.13;;;9.40;99.90;;;;;;5052679;28;20203;-59
2023/12/13 11:40:16;;;;;;;3.10;2.40;;;9.50;99.90;;;;;;5052923;28;20465;-59
2023/12/13 11:42:43;;;;;;;2.97;2.38;;;9.50;99.90;;;;;;5052620;28;20455;-59
2023/12/13 11:45:10;;;;;;;2.17;1.97;;;9.50;99.90;;;;;;5053024;28;20303;-60
2023/12/13 11:47:39;;;;;;;3.13;2.03;;;9.60;99.90;;;;;;5052213;28;21061;-61
2023/12/13 11:50:10;;;;;;;2.53;2.10;;;9.60;99.90;;;;;;5052316;28;20940;-60
2023/12/13 11:52:37;;;;;;;2.63;2.42;;;9.70;99.90;;;;;;5052829;28;20449;-61
2023/12/13 11:55:06;;;;;;;3.97;2.30;;;9.80;99.90;;;;;;5052552;28;20202;-61
2023/12/13 11:57:33;;;;;;;5.65;2.40;;;9.90;99.90;;;;;;5052182;28;20208;-61
2023/12/13 12:00:00;;;;;;;2.60;2.40;;;10.00;99.90;;;;;;5052665;28;20313;-61
2023/12/13 12:02:27;;;;;;;1.80;1.70;;;10.10;99.90;;;;;;5051823;28;20441;-61
2023/12/13 12:04:55;;;;;;;2.20;2.00;;;10.10;99.90;;;;;;5052481;28;20460;-61
2023/12/13 12:07:22;;;;;;;3.47;1.87;;;10.30;99.90;;;;;;5052265;28;20826;-61
2023/12/13 12:09:49;;;;;;;2.97;2.70;;;10.40;99.90;;;;;;5051616;28;20475;-61
2023/12/13 12:12:17;;;;;;;2.00;1.60;;;10.60;99.90;;;;;;5051476;28;20437;-61
2023/12/13 12:14:47;;;;;;;2.93;2.00;;;10.90;99.90;;;;;;5051792;28;20484;-61
2023/12/13 12:17:19;;;;;;;2.50;1.70;;;11.20;99.90;;;;;;5052256;28;20445;-61
2023/12/13 12:19:46;;;;;;;1.67;1.57;;;11.50;99.90;;;;;;5051981;28;20987;-61
2023/12/13 12:22:14;;;;;;;3.40;3.10;;;11.70;99.90;;;;;;5052142;28;20822;-61
2023/12/13 12:24:41;;;;;;;23.50;5.00;;;12.00;99.90;;;;;;5051124;28;20826;-61
2023/12/13 12:27:08;;;;;;;2.50;1.37;;;12.40;99.90;;;;;;5041645;28;20459;-61
2023/12/13 12:29:35;;;;;;;11.70;2.67;;;12.60;99.90;;;;;;5051031;28;20488;-60
2023/12/13 12:32:07;;;;;;;8.63;3.00;;;13.00;99.90;;;;;;5051528;28;20977;-61
2023/12/13 12:34:35;;;;;;;14.60;3.70;;;13.50;99.90;;;;;;5051211;28;20859;-61
2023/12/13 12:37:02;;;;;;;3.63;1.73;;;14.00;99.90;;;;;;5051479;28;20448;-61
2023/12/13 12:39:31;;;;;;;34.90;8.17;;;14.30;99.90;;;;;;5051224;28;20449;-60
2023/12/13 12:41:58;;;;;;;16.97;4.87;;;14.60;99.90;;;;;;5051282;28;20536;-61
2023/12/13 12:44:25;;;;;;;5.73;2.57;;;15.00;99.90;;;;;;5051346;28;20541;-61
2023/12/13 12:46:51;;;;;;;27.97;7.60;;;15.40;99.90;;;;;;5051293;28;20453;-61
2023/12/13 12:49:18;;;;;;;4.30;1.60;;;15.80;99.90;;;;;;5049046;28;20492;-60
2023/12/13 12:51:45;;;;;;;1.30;1.20;;;16.20;99.90;;;;;;5050834;28;20445;-60
2023/12/13 12:54:12;;;;;;;3.60;1.70;;;16.30;99.90;;;;;;5050937;28;20449;-60
2023/12/13 12:56:40;;;;;;;4.40;2.33;;;16.00;99.90;;;;;;5049751;28;20462;-61